Gateway, Minnesota
Current Conditions -  °F | °C
As of 1:55 PM on Monday 24 Nov 2014 (Local Time) from KINL Reporting Station
Light Snow Light Snow  
Wind Chill:   Ceiling: 2000
Heat Index: 17°   Visibility: 6mi
Dew Point: 10°   Wind: 15mph
Humidity: 74%   Direction: 340°NNW
Pressure: 29.6"   Gusts: NA
Location:  48.5197°N, 92.902°W
Report Text: KINL 241955Z AUTO 34013KT 6SM -SN BKN020 OVC050 M08/M12 A2960 RMK AO2 SLP043 P0000 T10831122 $
Loading
Personal Weather Stations






























Interactive Weather Map New forecast layout! Learn more

10-Day Weather Forecast

Advertisements
Track Severe Weather on mobile